Time;durP1;ratioP1;P1;durP2;ratioP2;P2;SDS_P1;SDS_P2;PMS_P1;PMS_P2;Temp;Humidity;BMP_temperature;BMP_pressure;BME280_temperature;BME280_humidity;BME280_pressure;Samples;Min_cycle;Max_cycle;Signal;HPM_P1;HPM_P2
2021/04/12 00:01:27;;;;;;;13.32;6.75;;;;;;;10.46;57.97;100450.44;5093680;28;20024;-71
2021/04/12 00:04:02;;;;;;;16.95;6.13;;;;;;;10.34;57.98;100433.31;5094262;28;20107;-71
2021/04/12 00:06:39;;;;;;;14.35;6.60;;;;;;;10.50;57.78;100451.97;5094122;28;20060;-72
2021/04/12 00:09:21;;;;;;;12.35;5.97;;;;;;;10.17;57.98;100396.91;5094122;28;20055;-70
2021/04/12 00:12:02;;;;;;;13.23;6.38;;;;;;;10.51;57.57;100446.53;5094016;28;20054;-71
2021/04/12 00:14:33;;;;;;;13.85;6.20;;;;;;;10.37;57.50;100425.13;5093942;28;20028;-72
2021/04/12 00:17:07;;;;;;;14.32;6.30;;;;;;;10.55;57.16;100444.56;5053335;28;20044;-72
2021/04/12 00:20:11;;;;;;;12.48;5.80;;;;;;;10.51;57.01;100416.34;5052425;28;20079;-72
2021/04/12 00:22:50;;;;;;;16.02;6.05;;;;;;;10.64;56.90;100428.03;5053946;28;20047;-75
2021/04/12 00:25:40;;;;;;;13.30;6.25;;;;;;;10.66;56.80;100434.13;5052780;28;20410;-74
2021/04/12 00:28:22;;;;;;;11.02;5.85;;;;;;;10.73;56.62;100424.84;5053346;28;20056;-73
2021/04/12 00:30:54;;;;;;;12.73;5.30;;;;;;;10.76;56.34;100421.13;5053380;28;20033;-73
2021/04/12 00:33:26;;;;;;;13.63;5.65;;;;;;;10.83;56.21;100420.69;5053823;28;20390;-73
2021/04/12 00:36:27;;;;;;;10.68;5.22;;;;;;;10.65;56.62;100407.56;5053227;28;20386;-73
2021/04/12 00:39:06;;;;;;;12.00;5.55;;;;;;;10.63;56.77;100420.13;5052546;28;20076;-70
2021/04/12 00:41:57;;;;;;;12.55;5.53;;;;;;;10.60;56.92;100421.16;5052333;28;20035;-70
2021/04/12 00:44:46;;;;;;;14.43;5.72;;;;;;;10.54;56.99;100400.19;5053502;28;20025;-69
2021/04/12 00:47:50;;;;;;;11.68;6.18;;;;;;;10.68;56.69;100424.22;5052405;28;20063;-73
2021/04/12 00:50:24;;;;;;;11.25;5.93;;;;;;;10.55;57.42;100423.22;5021857;28;20477;-69
2021/04/12 00:53:12;;;;;;;;;;;;;;;10.57;57.30;100422.19;5053460;28;20415;-70
2021/04/12 00:56:12;;;;;;;14.48;5.95;;;;;;;10.47;57.60;100420.13;5052043;28;19948;-69
2021/04/12 00:59:23;;;;;;;17.30;6.53;;;;;;;10.38;57.82;100421.53;5030095;28;20048;-70
2021/04/12 01:02:08;;;;;;;13.43;6.13;;;;;;;10.15;58.45;100429.94;5029761;28;20053;-70
2021/04/12 01:04:38;;;;;;;14.15;5.93;;;;;;;10.04;58.88;100427.84;5053050;28;20055;-69
2021/04/12 01:07:41;;;;;;;13.00;6.35;;;;;;;10.15;58.42;100420.13;5052866;28;20094;-70
2021/04/12 01:10:28;;;;;;;12.63;5.90;;;;;;;10.12;58.62;100420.28;5051561;28;20029;-69
2021/04/12 01:13:21;;;;;;;15.18;6.72;;;;;;;9.99;59.18;100413.91;5052757;28;20032;-69
2021/04/12 01:16:24;;;;;;;12.30;6.13;;;;;;;9.93;59.24;100415.09;5073408;28;20393;-71
2021/04/12 01:19:01;;;;;;;11.63;5.70;;;;;;;9.64;59.67;100392.69;5092947;28;20028;-70
2021/04/12 01:21:47;;;;;;;14.60;6.07;;;;;;;9.74;59.91;100409.03;5093503;28;20411;-72
2021/04/12 01:24:37;;;;;;;12.02;6.13;;;;;;;9.70;59.97;100408.38;5092906;28;20384;-69
2021/04/12 01:27:08;;;;;;;15.00;6.60;;;;;;;9.84;59.46;100406.75;5074845;28;20028;-71
2021/04/12 01:30:08;;;;;;;15.07;6.20;;;;;;;9.84;59.20;100404.09;5093226;28;20444;-69
2021/04/12 01:32:55;;;;;;;13.85;6.45;;;;;;;9.70;59.78;100397.72;5075083;28;20123;-71
2021/04/12 01:35:42;;;;;;;12.98;6.53;;;;;;;9.61;60.14;100394.69;5093255;28;20032;-72
2021/04/12 01:38:28;;;;;;;14.88;6.85;;;;;;;9.53;60.38;100411.06;5092579;28;20115;-71
2021/04/12 01:41:18;;;;;;;17.50;6.70;;;;;;;9.59;60.42;100394.78;5074562;28;20124;-72
2021/04/12 01:44:22;;;;;;;11.32;7.00;;;;;;;9.62;60.15;100389.28;5092874;28;20105;-72
2021/04/12 01:47:01;;;;;;;12.65;6.50;;;;;;;9.60;59.60;100369.84;5092732;28;20032;-72
2021/04/12 01:49:37;;;;;;;12.55;6.13;;;;;;;9.72;59.31;100390.50;5093092;28;20108;-71
2021/04/12 01:52:30;;;;;;;14.38;6.45;;;;;;;9.60;60.09;100391.16;5092386;28;20025;-70
2021/04/12 01:54:55;;;;;;;15.02;6.07;;;;;;;9.53;60.40;100378.25;5092549;28;20024;-66
2021/04/12 01:57:30;;;;;;;14.00;6.38;;;;;;;9.13;60.83;100338.66;5092882;28;20046;-66
2021/04/12 02:00:23;;;;;;;17.67;6.22;;;;;;;9.12;61.05;100358.22;5092724;28;20035;-66
2021/04/12 02:03:19;;;;;;;17.10;6.87;;;;;;;9.14;61.51;100382.09;5074114;28;20036;-66
2021/04/12 02:05:56;;;;;;;13.52;5.90;;;;;;;9.10;61.93;100369.91;5092869;28;20047;-66
2021/04/12 02:08:36;;;;;;;15.20;6.47;;;;;;;9.03;61.98;100377.31;5075106;28;20040;-67
2021/04/12 02:11:21;;;;;;;15.27;6.55;;;;;;;9.01;62.34;100381.88;5074536;28;20380;-67
2021/04/12 02:14:14;;;;;;;15.20;6.35;;;;;;;8.98;62.48;100381.19;5093327;28;20061;-67
2021/04/12 02:16:56;;;;;;;13.50;6.77;;;;;;;8.93;62.50;100378.75;5097918;28;20055;-66
2021/04/12 02:19:40;;;;;;;12.80;6.10;;;;;;;8.87;62.42;100379.03;5093438;28;20035;-66
2021/04/12 02:22:24;;;;;;;13.75;6.07;;;;;;;8.75;62.36;100347.75;5092960;28;20445;-69
2021/04/12 02:25:28;;;;;;;12.73;6.20;;;;;;;8.84;62.50;100363.25;5096676;28;20404;-71
2021/04/12 02:28:19;;;;;;;16.27;6.93;;;;;;;8.87;62.79;100363.09;5057764;28;20036;-70
2021/04/12 02:30:54;;;;;;;10.48;5.72;;;;;;;8.90;62.63;100368.25;5078389;28;20036;-71
2021/04/12 02:33:32;;;;;;;12.68;5.80;;;;;;;8.87;62.53;100363.09;5096004;28;20422;-71
2021/04/12 02:36:10;;;;;;;8.55;5.32;;;;;;;8.99;61.90;100350.97;5077976;28;20381;-71
2021/04/12 02:39:06;;;;;;;12.93;5.65;;;;;;;9.16;61.72;100359.75;5095877;28;20061;-71
2021/04/12 02:41:56;;;;;;;12.10;6.22;;;;;;;9.26;61.16;100360.13;5096613;28;20031;-70
2021/04/12 02:44:30;;;;;;;15.15;6.15;;;;;;;9.25;61.36;100357.56;5095806;28;20027;-70
2021/04/12 02:47:07;;;;;;;14.23;5.75;;;;;;;9.17;61.54;100356.19;5095757;28;20044;-70
2021/04/12 02:49:56;;;;;;;11.57;5.43;;;;;;;9.11;61.58;100363.63;5096020;28;20381;-71
2021/04/12 02:52:37;;;;;;;13.93;5.72;;;;;;;9.09;61.49;100370.84;5095604;28;20055;-70
2021/04/12 02:55:18;;;;;;;10.18;5.40;;;;;;;8.92;62.28;100368.19;5077218;28;20127;-70
2021/04/12 02:57:46;;;;;;;11.15;5.50;;;;;;;8.76;63.03;100370.75;5095818;28;20089;-70
2021/04/12 03:00:35;;;;;;;15.25;6.00;;;;;;;8.66;63.08;100375.69;5077217;28;20465;-69
2021/04/12 03:03:19;;;;;;;14.75;6.28;;;;;;;8.43;63.44;100352.06;5095142;28;20486;-70
2021/04/12 03:05:44;;;;;;;14.50;5.88;;;;;;;8.54;63.54;100374.50;5095316;28;20165;-70
2021/04/12 03:08:54;;;;;;;13.18;6.18;;;;;;;8.74;63.18;100365.50;5095191;28;20862;-70
2021/04/12 03:11:38;;;;;;;20.60;7.15;;;;;;;8.67;62.95;100334.00;5033231;28;20050;-71
2021/04/12 03:14:48;;;;;;;15.18;6.55;;;;;;;8.73;63.01;100355.81;5076951;28;20082;-70
2021/04/12 03:17:19;;;;;;;10.98;6.00;;;;;;;8.67;63.28;100348.16;4993002;28;20049;-70
2021/04/12 03:20:08;;;;;;;10.00;5.80;;;;;;;8.60;63.44;100349.41;4993622;28;20478;-70
2021/04/12 03:23:15;;;;;;;13.95;6.40;;;;;;;8.53;63.78;100348.00;5060374;28;20048;-69
2021/04/12 03:26:01;;;;;;;12.27;6.40;;;;;;;8.43;63.57;100333.44;5076976;28;20357;-69
2021/04/12 03:28:27;;;;;;;14.23;6.38;;;;;;;8.45;63.96;100350.16;5094932;28;20035;-71
2021/04/12 03:31:28;;;;;;;14.55;7.40;;;;;;;8.35;64.54;100338.28;5076880;28;20525;-79
2021/04/12 03:34:17;;;;;;;19.55;7.70;;;;;;;8.32;64.33;100333.94;5094579;28;20061;-73
2021/04/12 03:36:55;;;;;;;17.02;7.80;;;;;;;8.26;64.60;100352.84;5095081;28;20118;-72
2021/04/12 03:39:34;;;;;;;18.80;8.13;;;;;;;8.25;64.52;100349.31;5076761;28;20043;-72
2021/04/12 03:42:17;;;;;;;18.98;8.10;;;;;;;8.28;64.68;100348.31;5094400;28;20082;-72
2021/04/12 03:45:07;;;;;;;16.05;7.75;;;;;;;8.25;64.48;100345.81;5095252;28;20117;-72
2021/04/12 03:48:00;;;;;;;16.75;7.85;;;;;;;8.26;64.60;100351.03;5094549;28;20036;-72
2021/04/12 03:50:31;;;;;;;16.58;7.63;;;;;;;8.23;65.01;100351.19;5094837;28;20461;-74
2021/04/12 03:53:13;;;;;;;18.83;7.70;;;;;;;8.14;64.93;100340.16;5094572;28;20044;-73
2021/04/12 03:56:09;;;;;;;16.33;8.00;;;;;;;7.90;64.95;100294.38;5094669;28;20025;-72
2021/04/12 03:58:56;;;;;;;15.68;7.50;;;;;;;8.32;64.49;100355.22;5094750;28;20128;-73
2021/04/12 04:02:16;;;;;;;19.95;9.00;;;;;;;8.36;64.46;100346.16;5094727;28;20088;-73
2021/04/12 04:05:15;;;;;;;17.17;9.57;;;;;;;8.46;63.70;100358.06;4992606;28;20117;-73
2021/04/12 04:08:02;;;;;;;21.15;9.20;;;;;;;8.41;64.45;100354.78;5094350;28;20049;-73
2021/04/12 04:10:46;;;;;;;21.13;9.90;;;;;;;8.41;64.20;100365.41;5094316;28;20028;-72
2021/04/12 04:13:22;;;;;;;19.33;9.55;;;;;;;8.36;64.56;100362.13;5094023;28;20028;-73
2021/04/12 04:15:50;;;;;;;17.60;9.30;;;;;;;8.15;64.47;100329.44;5093851;28;20475;-72
2021/04/12 04:19:03;;;;;;;18.95;9.18;;;;;;;8.41;64.45;100369.88;5093757;28;20059;-70
2021/04/12 04:21:35;;;;;;;21.63;9.17;;;;;;;8.43;64.43;100357.38;5053023;28;20445;-70
2021/04/12 04:24:37;;;;;;;17.83;8.95;;;;;;;8.56;64.23;100359.31;5093535;28;20028;-71
2021/04/12 04:27:43;;;;;;;17.27;8.23;;;;;;;8.60;64.28;100370.69;5093514;28;20032;-71
2021/04/12 04:30:18;;;;;;;20.50;8.98;;;;;;;8.78;63.82;100374.19;5093575;28;20035;-70
2021/04/12 04:32:51;;;;;;;18.08;8.68;;;;;;;8.88;63.16;100367.50;5075676;28;20039;-68
2021/04/12 04:35:35;;;;;;;17.70;8.57;;;;;;;9.00;63.28;100364.19;5075479;28;20344;-70
2021/04/12 04:38:23;;;;;;;17.73;8.15;;;;;;;9.15;62.52;100358.06;5093614;28;20497;-71
2021/04/12 04:40:59;;;;;;;18.35;8.35;;;;;;;9.18;62.50;100352.59;5093884;28;20032;-70
2021/04/12 04:43:53;;;;;;;19.58;8.60;;;;;;;9.24;62.68;100363.84;5093972;28;20031;-71
2021/04/12 04:46:33;;;;;;;17.83;8.43;;;;;;;9.24;62.41;100361.16;5074953;28;20055;-71
2021/04/12 04:49:11;;;;;;;16.27;8.60;;;;;;;9.35;62.33;100372.09;5093492;28;20024;-76
2021/04/12 04:52:21;;;;;;;23.80;9.63;;;;;;;9.43;62.20;100373.41;5093634;28;20032;-71
2021/04/12 04:54:58;;;;;;;22.42;9.23;;;;;;;9.68;61.55;100383.63;5093126;28;20032;-71
2021/04/12 04:57:58;;;;;;;20.85;9.40;;;;;;;10.05;60.79;100389.59;5093157;28;20024;-75
2021/04/12 05:01:01;;;;;;;21.80;9.30;;;;;;;10.19;60.15;100381.66;5092859;28;20028;-69
2021/04/12 05:03:54;;;;;;;21.02;9.85;;;;;;;10.29;59.87;100390.03;5093078;28;20027;-69
2021/04/12 05:06:49;;;;;;;17.95;9.45;;;;;;;10.45;59.36;100390.03;5093342;28;20032;-70
2021/04/12 05:09:18;;;;;;;25.25;10.15;;;;;;;10.60;59.03;100389.13;5101685;28;20411;-69
2021/04/12 05:12:08;;;;;;;21.25;11.15;;;;;;;10.74;57.86;100377.69;5102893;28;20047;-68
2021/04/12 05:15:13;;;;;;;21.63;10.50;;;;;;;10.84;56.89;100387.72;5062667;28;20373;-68
2021/04/12 05:18:02;;;;;;;23.27;10.75;;;;;;;10.78;56.85;100384.53;5050982;28;20031;-68
2021/04/12 05:20:58;;;;;;;21.92;11.07;;;;;;;10.79;57.19;100403.13;5103084;28;20043;-69
2021/04/12 05:24:00;;;;;;;22.50;11.15;;;;;;;10.80;57.37;100401.31;5096516;28;20038;-70
2021/04/12 05:27:02;;;;;;;20.38;10.80;;;;;;;10.98;56.90;100397.56;5103630;28;20076;-70
2021/04/12 05:30:13;;;;;;;21.88;10.40;;;;;;;11.11;56.36;100403.91;5110033;28;20464;-70
2021/04/12 05:32:58;;;;;;;20.98;10.85;;;;;;;11.00;56.61;100373.44;5102848;28;20050;-74
2021/04/12 05:35:58;;;;;;;21.23;11.00;;;;;;;11.13;56.70;100396.66;5089829;28;20529;-70
2021/04/12 05:39:01;;;;;;;22.85;11.02;;;;;;;11.13;56.47;100387.78;5010594;28;20407;-69
2021/04/12 05:41:41;;;;;;;19.90;11.05;;;;;;;11.08;56.70;100389.84;5092010;28;20083;-71
2021/04/12 05:44:12;;;;;;;23.58;12.10;;;;;;;11.09;56.77;100389.75;5092334;28;20086;-70
2021/04/12 05:47:03;;;;;;;23.13;10.85;;;;;;;11.20;56.44;100389.16;5091850;28;20051;-70
2021/04/12 05:49:44;;;;;;;20.75;10.23;;;;;;;11.15;56.04;100365.38;5092014;28;20036;-70
2021/04/12 05:52:28;;;;;;;21.70;10.18;;;;;;;11.27;56.13;100386.94;5092135;28;20070;-69
2021/04/12 05:55:16;;;;;;;22.38;10.50;;;;;;;11.25;55.39;100344.31;5092163;28;20116;-72
2021/04/12 05:58:01;;;;;;;21.58;12.43;;;;;;;11.47;55.29;100382.09;5093075;28;20024;-77
2021/04/12 06:00:30;;;;;;;26.25;13.30;;;;;;;11.63;54.42;100341.06;5117479;28;20043;-75
2021/04/12 06:03:19;;;;;;;24.88;13.20;;;;;;;12.36;53.55;100380.97;5117117;28;20084;-70
2021/04/12 06:06:22;;;;;;;20.52;11.65;;;;;;;12.79;52.08;100378.97;5117136;28;20024;-72
2021/04/12 06:09:13;;;;;;;22.40;11.65;;;;;;;12.85;51.69;100365.19;5116996;28;20027;-72
2021/04/12 06:12:15;;;;;;;23.67;12.02;;;;;;;12.95;50.90;100354.72;5117068;28;20027;-72
2021/04/12 06:15:00;;;;;;;21.50;11.77;;;;;;;12.97;51.28;100376.88;5116873;28;20107;-72
2021/04/12 06:18:02;;;;;;;22.50;12.02;;;;;;;12.70;52.16;100376.91;5116682;28;20422;-72
2021/04/12 06:20:48;;;;;;;21.00;11.32;;;;;;;12.78;51.87;100318.38;5116688;28;20066;-72
2021/04/12 06:23:34;;;;;;;22.65;11.23;;;;;;;13.88;49.71;100356.19;5116337;28;20468;-71
2021/04/12 06:26:27;;;;;;;20.65;11.15;;;;;;;13.75;49.68;100361.59;5117058;28;20110;-71
2021/04/12 06:29:11;;;;;;;20.52;10.70;;;;;;;13.56;50.26;100364.72;5115563;28;20126;-71
2021/04/12 06:31:39;;;;;;;;;;;;;;;14.29;48.37;100359.41;5117427;28;20475;-72
2021/04/12 06:34:29;;;;;;;17.15;9.50;;;;;;;14.63;47.79;100362.28;5116240;28;19957;-72
2021/04/12 06:37:13;;;;;;;16.17;9.10;;;;;;;14.97;47.01;100354.38;5116273;28;20030;-72
2021/04/12 06:40:15;;;;;;;15.48;7.85;;;;;;;14.95;46.79;100356.28;5116623;28;20391;-72
2021/04/12 06:43:28;;;;;;;17.50;8.48;;;;;;;15.13;45.91;100354.88;5116736;28;20031;-71
2021/04/12 06:46:32;;;;;;;17.00;8.20;;;;;;;15.40;45.71;100360.78;4997156;28;20124;-71
2021/04/12 06:49:25;;;;;;;13.52;7.35;;;;;;;15.79;44.41;100353.25;5116297;28;20031;-71
2021/04/12 06:52:35;;;;;;;16.38;7.07;;;;;;;16.58;42.90;100360.19;5116054;28;20032;-71
2021/04/12 06:55:23;;;;;;;15.98;7.55;;;;;;;16.90;41.76;100345.03;5059907;28;20051;-71
2021/04/12 06:58:33;;;;;;;14.07;7.47;;;;;;;16.82;42.16;100353.75;5116255;28;20123;-73
2021/04/12 07:01:39;;;;;;;16.60;7.47;;;;;;;16.28;42.92;100341.19;5059931;28;20051;-73
2021/04/12 07:04:15;;;;;;;14.57;6.72;;;;;;;15.98;43.77;100350.78;5116098;28;20497;-73
2021/04/12 07:06:52;;;;;;;13.60;6.57;;;;;;;15.99;43.93;100349.81;5116017;28;20403;-71
2021/04/12 07:09:59;;;;;;;10.85;6.43;;;;;;;15.99;43.67;100352.50;5115404;28;20024;-72
2021/04/12 07:13:04;;;;;;;13.80;6.75;;;;;;;15.84;43.88;100345.69;5012914;28;20077;-71
2021/04/12 07:15:42;;;;;;;16.05;6.47;;;;;;;15.70;44.36;100354.84;5096951;28;20463;-72
2021/04/12 07:18:29;;;;;;;12.68;6.25;;;;;;;15.72;44.26;100352.03;5115857;28;20036;-71
2021/04/12 07:21:06;;;;;;;12.63;6.10;;;;;;;15.76;44.07;100353.50;5115702;28;20049;-71
2021/04/12 07:24:08;;;;;;;14.45;6.30;;;;;;;15.70;44.21;100348.63;5115495;28;20036;-72
2021/04/12 07:27:16;;;;;;;14.93;6.55;;;;;;;15.77;44.29;100344.47;5097153;28;20476;-72
2021/04/12 07:30:19;;;;;;;15.38;6.40;;;;;;;15.80;44.47;100343.34;5115388;28;20031;-71
2021/04/12 07:33:11;;;;;;;12.45;5.22;;;;;;;15.87;44.24;100350.81;5115896;28;20080;-72
2021/04/12 07:36:01;;;;;;;11.75;5.20;;;;;;;15.94;44.07;100354.72;5115266;28;20031;-71
2021/04/12 07:38:32;;;;;;;9.73;4.45;;;;;;;15.93;43.93;100349.47;5114939;28;20380;-73
2021/04/12 07:41:38;;;;;;;9.88;4.93;;;;;;;15.92;44.11;100343.25;5115393;28;20028;-71
2021/04/12 07:44:28;;;;;;;11.25;5.30;;;;;;;16.08;44.02;100353.59;5114919;28;20122;-72
2021/04/12 07:47:16;;;;;;;13.25;5.72;;;;;;;16.02;44.23;100354.09;5115331;28;20036;-71
2021/04/12 07:50:11;;;;;;;17.67;6.05;;;;;;;16.05;44.10;100359.22;5115229;28;20036;-71
2021/04/12 07:52:59;;;;;;;11.63;5.60;;;;;;;16.03;44.41;100340.53;5115333;28;20080;-71
2021/04/12 07:55:50;;;;;;;11.45;5.45;;;;;;;16.03;44.69;100351.28;5096615;28;20193;-71
2021/04/12 07:58:44;;;;;;;11.20;5.43;;;;;;;16.15;44.29;100340.50;5100767;28;20506;-73
2021/04/12 08:01:24;;;;;;;17.10;5.88;;;;;;;16.17;44.19;100346.59;5115218;28;20039;-71
2021/04/12 08:04:24;;;;;;;15.90;5.72;;;;;;;16.24;43.85;100347.81;5115033;28;20036;-72
2021/04/12 08:06:50;;;;;;;11.82;5.13;;;;;;;16.37;44.13;100339.56;5092762;28;20047;-72
2021/04/12 08:09:50;;;;;;;12.20;5.15;;;;;;;16.56;43.87;100342.44;5114427;28;20387;-78
2021/04/12 08:12:50;;;;;;;10.40;5.60;;;;;;;16.71;43.12;100341.22;5058247;28;20502;-73
2021/04/12 08:15:38;;;;;;;13.57;5.78;;;;;;;16.77;42.95;100346.06;5114486;28;20056;-79
2021/04/12 08:18:04;;;;;;;13.38;5.28;;;;;;;16.87;42.66;100346.97;5114861;28;20084;-71
2021/04/12 08:21:01;;;;;;;13.70;5.85;;;;;;;16.79;42.66;100327.94;5095646;28;20032;-71
2021/04/12 08:24:03;;;;;;;11.43;5.68;;;;;;;16.80;42.69;100347.66;5096193;28;20095;-72
2021/04/12 08:26:56;;;;;;;12.73;6.15;;;;;;;16.83;43.38;100339.31;5114334;28;20028;-72
2021/04/12 08:29:58;;;;;;;11.65;5.18;;;;;;;17.07;43.21;100342.59;5118009;28;20051;-72
2021/04/12 08:32:48;;;;;;;11.95;3.67;;;;;;;17.17;43.42;100332.72;5117757;28;20019;-72
2021/04/12 08:35:14;;;;;;;8.88;3.33;;;;;;;17.21;43.35;100336.03;5114256;28;20392;-71
2021/04/12 08:38:04;;;;;;;9.50;3.00;;;;;;;17.21;43.69;100324.41;5114154;28;20138;-71
2021/04/12 08:40:54;;;;;;;7.93;2.88;;;;;;;17.16;43.45;100331.00;5095758;28;20019;-73
2021/04/12 08:43:44;;;;;;;8.52;2.55;;;;;;;17.31;43.36;100314.50;5113978;28;20035;-72
2021/04/12 08:46:28;;;;;;;4.97;2.30;;;;;;;17.25;43.61;100323.97;5114421;28;20064;-73
2021/04/12 08:49:31;;;;;;;8.45;3.03;;;;;;;17.36;43.78;100321.19;5114238;28;20031;-73
2021/04/12 08:52:35;;;;;;;9.00;3.10;;;;;;;17.46;43.14;100326.63;5113985;28;20035;-72
2021/04/12 08:55:38;;;;;;;12.05;3.58;;;;;;;17.55;42.18;100328.53;5095872;28;20055;-72
2021/04/12 08:58:40;;;;;;;12.75;3.58;;;;;;;17.56;42.70;100305.97;5113865;28;20030;-72
2021/04/12 09:01:53;;;;;;;9.32;3.50;;;;;;;17.76;41.73;100311.47;5113748;28;20115;-71
2021/04/12 09:05:02;;;;;;;12.02;3.55;;;;;;;17.73;41.63;100316.16;5036200;28;20093;-74
2021/04/12 09:07:53;;;;;;;11.20;3.70;;;;;;;17.65;41.29;100307.84;5095528;28;20089;-72
2021/04/12 09:10:38;;;;;;;9.43;3.80;;;;;;;17.71;41.53;100310.03;5095553;28;20035;-78
2021/04/12 09:13:18;;;;;;;11.10;3.95;;;;;;;17.75;41.37;100305.22;5114026;28;20027;-71
2021/04/12 09:16:02;;;;;;;9.88;3.80;;;;;;;17.80;40.88;100300.28;5113359;28;20058;-72
2021/04/12 09:19:05;;;;;;;10.48;3.70;;;;;;;17.85;40.93;100299.84;5113645;28;20478;-71
2021/04/12 09:22:04;;;;;;;9.57;4.00;;;;;;;17.98;40.21;100305.88;5095326;28;20085;-72
2021/04/12 09:24:38;;;;;;;10.32;4.20;;;;;;;18.00;40.32;100311.97;5113308;28;20483;-71
2021/04/12 09:27:29;;;;;;;11.40;4.38;;;;;;;17.97;40.20;100310.41;5113709;28;20028;-71
2021/04/12 09:30:33;;;;;;;12.25;4.38;;;;;;;17.98;40.34;100303.16;5113269;28;20494;-72
2021/04/12 09:33:24;;;;;;;11.15;4.55;;;;;;;18.00;39.80;100293.94;5077329;28;20126;-71
2021/04/12 09:36:27;;;;;;;13.40;4.22;;;;;;;18.07;39.86;100296.94;5099450;28;20108;-71
2021/04/12 09:39:33;;;;;;;12.32;4.68;;;;;;;18.17;40.00;100284.31;5117796;28;20028;-72
2021/04/12 09:42:10;;;;;;;9.48;4.07;;;;;;;18.18;40.13;100277.91;5099725;28;20034;-71
2021/04/12 09:44:54;;;;;;;11.30;3.78;;;;;;;18.30;40.22;100281.31;5117134;28;20458;-71
2021/04/12 09:47:48;;;;;;;9.38;3.67;;;;;;;18.37;40.10;100276.22;5117570;28;20376;-73
2021/04/12 09:50:41;;;;;;;8.75;3.40;;;;;;;18.44;40.10;100263.88;5099319;28;20383;-71
2021/04/12 09:53:55;;;;;;;8.75;3.22;;;;;;;18.47;40.67;100263.56;5117637;28;20472;-72
2021/04/12 09:57:02;;;;;;;7.53;3.42;;;;;;;18.69;40.10;100251.63;5117015;28;20115;-72
2021/04/12 09:59:55;;;;;;;9.82;3.17;;;;;;;18.86;40.16;100259.00;5117036;28;20027;-72
2021/04/12 10:02:55;;;;;;;7.10;2.77;;;;;;;19.07;40.24;100242.59;5117414;28;20027;-71
2021/04/12 10:05:47;;;;;;;10.90;2.45;;;;;;;19.12;40.67;100232.22;5098990;28;20028;-72
2021/04/12 10:08:16;;;;;;;7.43;2.47;;;;;;;19.39;41.23;100240.34;5117338;28;20035;-71
2021/04/12 10:11:05;;;;;;;9.60;2.20;;;;;;;19.47;40.72;100249.56;5116908;28;20058;-73
2021/04/12 10:13:49;;;;;;;8.43;2.25;;;;;;;19.55;40.83;100238.84;5116943;28;20032;-71
2021/04/12 10:16:22;;;;;;;10.75;2.55;;;;;;;19.67;40.18;100206.03;5116403;28;20385;-72
2021/04/12 10:19:16;;;;;;;12.65;2.78;;;;;;;19.87;40.12;100227.56;5116693;28;20027;-71
2021/04/12 10:21:44;;;;;;;10.57;2.47;;;;;;;19.93;40.27;100227.81;5116597;28;20122;-71
2021/04/12 10:24:23;;;;;;;9.55;2.60;;;;;;;19.67;40.25;100194.38;5116639;28;20031;-71
2021/04/12 10:27:10;;;;;;;8.70;2.55;;;;;;;20.01;40.14;100229.78;5098373;28;20042;-70
2021/04/12 10:29:45;;;;;;;6.85;2.88;;;;;;;20.15;39.66;100231.09;5116257;28;20034;-71
2021/04/12 10:32:20;;;;;;;7.30;2.40;;;;;;;20.26;39.34;100223.56;5116461;28;20031;-72
2021/04/12 10:35:08;;;;;;;6.20;2.22;;;;;;;20.47;39.42;100222.47;5116264;28;20031;-71
2021/04/12 10:38:07;;;;;;;9.38;2.45;;;;;;;20.63;38.34;100202.75;5097601;28;20038;-73
2021/04/12 10:40:38;;;;;;;6.38;2.00;;;;;;;20.59;38.47;100213.06;5116139;28;20365;-71
2021/04/12 10:43:21;;;;;;;5.28;2.10;;;;;;;20.55;38.84;100212.50;5116057;28;20035;-72
2021/04/12 10:46:08;;;;;;;8.63;2.10;;;;;;;20.47;39.06;100215.19;5116249;28;20042;-72
2021/04/12 10:48:51;;;;;;;11.48;2.40;;;;;;;20.57;38.67;100213.22;5116322;28;20039;-71
2021/04/12 10:51:28;;;;;;;8.77;2.70;;;;;;;20.71;38.76;100211.78;5098128;28;20039;-70
2021/04/12 10:54:06;;;;;;;8.05;2.55;;;;;;;20.82;38.62;100197.13;5116389;28;20032;-71
2021/04/12 10:56:48;;;;;;;9.48;2.50;;;;;;;20.73;38.57;100195.38;5116040;28;20032;-71
2021/04/12 10:59:51;;;;;;;7.20;2.67;;;;;;;20.65;38.78;100201.56;5116728;28;20537;-72
2021/04/12 11:02:35;;;;;;;7.85;2.40;;;;;;;20.66;39.07;100203.31;5115855;28;20296;-71
2021/04/12 11:05:03;;;;;;;7.20;2.10;;;;;;;20.70;39.06;100198.41;5116147;28;20036;-72
2021/04/12 11:07:55;;;;;;;8.25;2.22;;;;;;;20.89;38.58;100195.47;5115778;28;20046;-71
2021/04/12 11:10:34;;;;;;;7.80;2.50;;;;;;;20.95;38.26;100197.56;5116209;28;20028;-71
2021/04/12 11:13:13;;;;;;;7.88;2.15;;;;;;;20.84;38.61;100177.00;5115988;28;20443;-71
2021/04/12 11:16:01;;;;;;;9.75;2.65;;;;;;;21.03;38.51;100185.91;5115512;28;20116;-71
2021/04/12 11:18:51;;;;;;;10.20;2.35;;;;;;;21.13;38.41;100173.06;5115717;28;20492;-71
2021/04/12 11:21:28;;;;;;;7.72;2.53;;;;;;;21.19;38.28;100171.56;5116058;28;20080;-71
2021/04/12 11:23:59;;;;;;;7.00;2.40;;;;;;;21.11;38.69;100175.09;5115879;28;20040;-72
2021/04/12 11:26:58;;;;;;;9.80;2.42;;;;;;;21.05;38.88;100182.03;5115419;28;20477;-71
2021/04/12 11:29:30;;;;;;;6.72;2.00;;;;;;;21.01;38.62;100169.78;5097281;28;20031;-72
2021/04/12 11:32:29;;;;;;;8.10;2.22;;;;;;;20.92;38.79;100165.34;5115801;28;20052;-72
2021/04/12 11:35:01;;;;;;;7.90;2.05;;;;;;;20.87;38.90;100162.28;5116306;28;20122;-71
2021/04/12 11:37:41;;;;;;;6.95;2.28;;;;;;;20.99;38.74;100171.81;5115785;28;20023;-72
2021/04/12 11:40:24;;;;;;;8.82;2.00;;;;;;;21.02;38.72;100162.50;5115582;28;20080;-71
2021/04/12 11:42:58;;;;;;;6.80;2.25;;;;;;;20.89;39.14;100160.25;5115069;28;20027;-71
2021/04/12 11:46:02;;;;;;;5.57;1.85;;;;;;;20.86;38.55;100172.28;5115288;28;20035;-71
2021/04/12 11:48:51;;;;;;;8.82;2.08;;;;;;;20.93;38.36;100166.19;5115306;28;20044;-71
2021/04/12 11:51:41;;;;;;;8.07;2.35;;;;;;;21.00;38.45;100159.97;5115158;28;20028;-72
2021/04/12 11:54:10;;;;;;;7.80;2.08;;;;;;;21.04;38.42;100153.22;5114991;28;20447;-71
2021/04/12 11:56:41;;;;;;;6.70;2.45;;;;;;;21.12;38.20;100158.66;5095554;28;20179;-72
2021/04/12 11:59:35;;;;;;;6.45;2.38;;;;;;;21.11;37.91;100154.25;5114727;28;20032;-71
2021/04/12 12:02:30;;;;;;;7.30;2.58;;;;;;;21.10;38.48;100163.41;5115170;28;20295;-71
2021/04/12 12:05:21;;;;;;;6.45;2.20;;;;;;;21.14;38.13;100161.22;5096725;28;20039;-72
2021/04/12 12:07:59;;;;;;;12.13;2.75;;;;;;;20.96;37.94;100104.38;5088717;28;20047;-73
2021/04/12 12:10:36;;;;;;;9.55;2.50;;;;;;;21.19;38.22;100158.00;5096820;28;20483;-72
2021/04/12 12:13:11;;;;;;;7.50;2.90;;;;;;;21.23;37.57;100151.25;5114857;28;20093;-73
2021/04/12 12:16:07;;;;;;;9.57;2.63;;;;;;;21.13;37.61;100146.81;5092614;28;20059;-72
2021/04/12 12:18:38;;;;;;;6.07;2.28;;;;;;;21.08;37.66;100140.19;5094094;28;20060;-73
2021/04/12 12:21:10;;;;;;;8.25;2.78;;;;;;;21.39;37.51;100145.91;5094352;28;20028;-71
2021/04/12 12:23:48;;;;;;;8.63;2.55;;;;;;;21.66;37.09;100148.38;5094071;28;20076;-73
2021/04/12 12:26:40;;;;;;;10.82;2.55;;;;;;;21.73;36.56;100145.00;5094319;28;20165;-72
2021/04/12 12:29:20;;;;;;;9.10;2.55;;;;;;;21.76;36.13;100125.66;5093593;28;20044;-72
2021/04/12 12:32:09;;;;;;;7.22;2.70;;;;;;;21.86;35.88;100142.66;5092650;28;20036;-72
2021/04/12 12:34:57;;;;;;;7.72;2.60;;;;;;;21.49;36.56;100141.19;5093712;28;20032;-73
2021/04/12 12:37:40;;;;;;;11.68;4.15;;;;;;;21.71;36.00;100146.03;5093856;28;20380;-71
2021/04/12 12:41:01;;;;;;;7.20;2.85;;;;;;;21.79;35.91;100133.47;5093707;28;20119;-71
2021/04/12 12:43:33;;;;;;;7.82;3.75;;;;;;;21.95;35.36;100136.22;5088178;28;20523;-72
2021/04/12 12:46:09;;;;;;;8.27;2.50;;;;;;;21.95;35.49;100136.22;5093865;28;20028;-72
2021/04/12 12:48:43;;;;;;;7.78;2.75;;;;;;;21.70;35.31;100095.44;5092183;28;20032;-71
2021/04/12 12:51:17;;;;;;;8.93;2.40;;;;;;;21.80;35.07;100108.84;5093616;28;20495;-72
2021/04/12 12:53:50;;;;;;;9.35;2.42;;;;;;;21.81;34.71;100107.88;5093479;28;20493;-72
2021/04/12 12:56:22;;;;;;;11.43;2.90;;;;;;;22.02;34.17;100104.66;5093760;28;20024;-72